createdAt,value
2018-11-21T00:00:08.267Z,46.8
2018-11-21T00:01:10.166Z,46.7
2018-11-21T00:02:11.788Z,46.8
2018-11-21T00:03:13.109Z,46.6
2018-11-21T00:04:15.005Z,46.9
2018-11-21T00:05:16.901Z,46.8
2018-11-21T00:06:18.797Z,46.9
2018-11-21T00:07:20.396Z,46.8
2018-11-21T00:08:21.737Z,46.7
2018-11-21T00:09:23.634Z,46.6
2018-11-21T00:10:24.988Z,46.9
2018-11-21T00:11:26.607Z,46.9
2018-11-21T00:12:28.503Z,47.1
2018-11-21T00:13:29.860Z,46.8
2018-11-21T00:14:31.460Z,46.8
2018-11-21T00:15:33.083Z,46.9
2018-11-21T00:16:34.125Z,46.7
2018-11-21T00:17:36.023Z,46.9
2018-11-21T00:18:37.646Z,46.8
2018-11-21T00:19:39.281Z,46.8
2018-11-21T00:20:40.911Z,46.8
2018-11-21T00:21:42.252Z,46.7
2018-11-21T00:22:44.148Z,46.8
2018-11-21T00:23:45.769Z,46.8
2018-11-21T00:24:47.091Z,46.9
2018-11-21T00:25:48.710Z,46.8
2018-11-21T00:26:50.057Z,46.8
2018-11-21T00:27:51.673Z,46.7
2018-11-21T00:28:53.566Z,46.9
2018-11-21T00:29:55.461Z,46.9
2018-11-21T00:30:56.783Z,46.9
2018-11-21T00:31:58.378Z,46.9
2018-11-21T00:33:00.275Z,46.9
2018-11-21T00:34:02.177Z,46.9
2018-11-21T00:35:03.797Z,46.7
2018-11-21T00:36:05.118Z,46.7
2018-11-21T00:37:06.717Z,46.8
2018-11-21T00:38:08.339Z,46.9
2018-11-21T00:39:10.237Z,46.7
2018-11-21T00:40:11.560Z,46.6
2018-11-21T00:41:13.460Z,46.8
2018-11-21T00:42:15.350Z,46.8
2018-11-21T00:43:16.967Z,46.6
2018-11-21T00:44:18.864Z,46.8
2018-11-21T00:45:20.761Z,46.9
2018-11-21T00:46:22.383Z,46.7
2018-11-21T00:47:23.728Z,46.8
2018-11-21T00:48:25.324Z,46.7
2018-11-21T00:49:26.950Z,46.7
2018-11-21T00:50:28.278Z,46.7
2018-11-21T00:51:29.620Z,46.6
2018-11-21T00:52:31.242Z,46.7
2018-11-21T00:53:33.140Z,46.6
2018-11-21T00:54:35.049Z,46.8
2018-11-21T00:55:37.076Z,46.8
2018-11-21T00:56:38.121Z,46.8
2018-11-21T00:57:40.021Z,46.9
2018-11-21T00:58:41.341Z,46.8
2018-11-21T00:59:42.681Z,46.8
2018-11-21T01:00:44.579Z,46.9
2018-11-21T01:01:46.198Z,47.1
2018-11-21T01:02:47.818Z,46.8
2018-11-21T01:03:49.716Z,47
2018-11-21T01:04:51.038Z,47
2018-11-21T01:05:52.088Z,46.8
2018-11-21T01:06:53.415Z,46.6
2018-11-21T01:07:55.037Z,46.9
2018-11-21T01:08:56.652Z,46.8
2018-11-21T01:09:58.250Z,46.7
2018-11-21T01:10:59.592Z,46.9
2018-11-21T01:12:00.635Z,46.7
2018-11-21T01:13:01.683Z,46.8
2018-11-21T01:14:03.301Z,46.7
2018-11-21T01:15:04.919Z,46.9
2018-11-21T01:16:06.824Z,46.8
2018-11-21T01:17:08.461Z,46.7
2018-11-21T01:18:10.084Z,46.9
2018-11-21T01:19:11.980Z,46.9
2018-11-21T01:20:13.876Z,47
2018-11-21T01:21:15.494Z,46.9
2018-11-21T01:22:17.090Z,46.8
2018-11-21T01:23:18.694Z,47
2018-11-21T01:24:20.592Z,46.9
2018-11-21T01:25:22.209Z,47
2018-11-21T01:26:24.108Z,46.7
2018-11-21T01:27:25.732Z,46.7
2018-11-21T01:28:28.312Z,46.7
2018-11-21T01:29:29.638Z,46.7
2018-11-21T01:30:31.535Z,46.6
2018-11-21T01:31:33.156Z,47
2018-11-21T01:32:34.477Z,46.9
2018-11-21T01:33:36.101Z,46.9
2018-11-21T01:34:37.719Z,46.8
2018-11-21T01:35:39.317Z,46.9
2018-11-21T01:36:40.636Z,46.5
2018-11-21T01:37:41.962Z,46.8
2018-11-21T01:38:43.849Z,46.8
2018-11-21T01:39:45.207Z,46.8
2018-11-21T01:40:47.089Z,46.7
2018-11-21T01:41:48.690Z,46.8
2018-11-21T01:42:49.734Z,46.8
2018-11-21T01:43:51.329Z,46.9
2018-11-21T01:44:52.947Z,46.8
2018-11-21T01:45:54.268Z,46.8
2018-11-21T01:46:56.165Z,46.8
2018-11-21T01:47:57.784Z,46.8
2018-11-21T01:48:59.141Z,46.7
2018-11-21T01:50:01.039Z,46.9
2018-11-21T01:51:02.661Z,46.9
2018-11-21T01:52:04.004Z,46.9
2018-11-21T01:53:05.901Z,46.7
2018-11-21T01:54:07.223Z,46.7
2018-11-21T01:55:09.117Z,46.6
2018-11-21T01:56:11.014Z,46.8
2018-11-21T01:57:12.612Z,46.8
2018-11-21T01:58:13.662Z,46.9
2018-11-21T01:59:14.707Z,46.7
2018-11-21T02:00:16.606Z,46.8
2018-11-21T02:01:18.500Z,47
2018-11-21T02:02:20.395Z,46.7
2018-11-21T02:03:22.013Z,46.9
2018-11-21T02:04:23.353Z,47
2018-11-21T02:05:24.974Z,46.6
2018-11-21T02:06:26.295Z,46.8
2018-11-21T02:07:27.340Z,46.8
2018-11-21T02:08:28.678Z,46.7
2018-11-21T02:09:30.300Z,46.9
2018-11-21T02:10:31.920Z,46.8
2018-11-21T02:11:33.818Z,46.8
2018-11-21T02:12:35.439Z,46.8
2018-11-21T02:13:36.783Z,46.6
2018-11-21T02:14:38.401Z,46.7
2018-11-21T02:15:40.294Z,46.9
2018-11-21T02:16:41.340Z,46.9
2018-11-21T02:17:42.960Z,46.8
2018-11-21T02:18:44.843Z,46.8
2018-11-21T02:19:46.739Z,46.7
2018-11-21T02:20:48.063Z,46.7
2018-11-21T02:21:49.416Z,46.9
2018-11-21T02:22:50.756Z,46.8
2018-11-21T02:23:52.375Z,46.7
2018-11-21T02:24:53.971Z,46.8
2018-11-21T02:25:55.867Z,46.9
2018-11-21T02:26:57.483Z,46.8
2018-11-21T02:27:59.382Z,46.6
2018-11-21T02:29:01.276Z,47
2018-11-21T02:30:03.171Z,46.7
2018-11-21T02:31:04.518Z,46.8
2018-11-21T02:32:06.145Z,46.9
2018-11-21T02:33:07.485Z,46.7
2018-11-21T02:34:08.810Z,46.8
2018-11-21T02:35:09.866Z,46.7
2018-11-21T02:36:11.176Z,46.7
2018-11-21T02:37:12.793Z,46.9
2018-11-21T02:38:13.844Z,46.8
2018-11-21T02:39:15.461Z,46.8
2018-11-21T02:40:17.064Z,46.7
2018-11-21T02:41:18.960Z,46.6
2018-11-21T02:42:20.302Z,46.7
2018-11-21T02:43:21.921Z,46.8
2018-11-21T02:44:23.542Z,46.6
2018-11-21T02:45:25.437Z,46.6
2018-11-21T02:46:27.338Z,47
2018-11-21T02:47:29.232Z,46.8
2018-11-21T02:48:31.134Z,46.7
2018-11-21T02:49:33.027Z,46.8
2018-11-21T02:50:34.675Z,46.8
2018-11-21T02:51:36.293Z,46.6
2018-11-21T02:52:38.191Z,46.6
2018-11-21T02:53:39.828Z,46.5
2018-11-21T02:54:41.719Z,46.6
2018-11-21T02:55:42.760Z,46.5
2018-11-21T02:56:44.723Z,46.5
2018-11-21T02:57:46.343Z,46.6
2018-11-21T02:58:47.663Z,46.6
2018-11-21T02:59:48.426Z,46.6
2018-11-21T03:00:50.027Z,46.4
2018-11-21T03:01:51.647Z,46.6
2018-11-21T03:02:53.274Z,46.5
2018-11-21T03:03:55.169Z,46.5
2018-11-21T03:04:57.070Z,46.6
2018-11-21T03:05:58.711Z,46.8
2018-11-21T03:07:00.332Z,46.8
2018-11-21T03:08:02.226Z,46.6
2018-11-21T03:09:04.122Z,46.5
2018-11-21T03:10:06.020Z,46.6
2018-11-21T03:11:07.343Z,46.8
2018-11-21T03:12:09.234Z,46.6
2018-11-21T03:13:10.650Z,46.6
2018-11-21T03:14:11.995Z,46.5
2018-11-21T03:15:13.893Z,46.6
2018-11-21T03:16:15.514Z,46.7
2018-11-21T03:17:17.118Z,46.5
2018-11-21T03:18:18.186Z,46.7
2018-11-21T03:19:20.079Z,46.6
2018-11-21T03:20:21.975Z,46.8
2018-11-21T03:21:23.877Z,46.8
2018-11-21T03:22:25.784Z,46.7
2018-11-21T03:23:27.394Z,46.6
2018-11-21T03:24:28.745Z,46.6
2018-11-21T03:25:30.637Z,46.5
2018-11-21T03:26:32.238Z,46.6
2018-11-21T03:27:34.132Z,46.7
2018-11-21T03:28:35.750Z,47
2018-11-21T03:29:37.370Z,46.9
2018-11-21T03:30:38.992Z,46.6
2018-11-21T03:31:40.313Z,46.6
2018-11-21T03:32:41.931Z,46.9
2018-11-21T03:33:43.276Z,46.7
2018-11-21T03:34:44.874Z,46.5
2018-11-21T03:35:46.495Z,46.4
2018-11-21T03:36:47.539Z,46.5
2018-11-21T03:37:49.436Z,46.5
2018-11-21T03:38:50.488Z,46.4
2018-11-21T03:39:52.109Z,46.5
2018-11-21T03:40:54.005Z,46.5
2018-11-21T03:41:55.627Z,46.4
2018-11-21T03:42:57.245Z,46.4
2018-11-21T03:43:59.140Z,46.4
2018-11-21T03:45:01.036Z,46.5
2018-11-21T03:46:02.377Z,46.5
2018-11-21T03:47:03.697Z,46.4
2018-11-21T03:48:04.744Z,46.4
2018-11-21T03:49:06.066Z,46.4
2018-11-21T03:50:07.963Z,46.4
2018-11-21T03:51:09.856Z,46.3
2018-11-21T03:52:11.481Z,46.7
2018-11-21T03:53:12.826Z,46.5
2018-11-21T03:54:14.439Z,46.5
2018-11-21T03:55:15.764Z,46.5
2018-11-21T03:56:17.662Z,46.5
2018-11-21T03:57:19.285Z,46.4
2018-11-21T03:58:20.899Z,46.4
2018-11-21T03:59:22.514Z,46.4
2018-11-21T04:00:24.133Z,46.5
2018-11-21T04:01:26.028Z,46.4
2018-11-21T04:02:27.922Z,46.5
2018-11-21T04:03:29.817Z,46.5
2018-11-21T04:04:31.442Z,46.4
2018-11-21T04:05:33.337Z,46.2
2018-11-21T04:06:35.236Z,46.3
2018-11-21T04:07:36.279Z,46.3
2018-11-21T04:08:43.043Z,46.3
2018-11-21T04:09:44.387Z,46.3
2018-11-21T04:10:45.724Z,46.2
2018-11-21T04:11:47.051Z,46.3
2018-11-21T04:12:48.668Z,46.4
2018-11-21T04:13:50.561Z,46.7
2018-11-21T04:14:51.883Z,46.3
2018-11-21T04:15:53.507Z,46.3
2018-11-21T04:16:54.572Z,46.2
2018-11-21T04:17:56.171Z,46.6
2018-11-21T04:18:57.538Z,46.7
2018-11-21T04:19:58.886Z,46.6
2018-11-21T04:21:00.785Z,46.4
2018-11-21T04:22:02.124Z,46.6
2018-11-21T04:23:03.722Z,46.4
2018-11-21T04:24:05.344Z,46.6
2018-11-21T04:25:06.965Z,46.6
2018-11-21T04:26:08.583Z,46.6
2018-11-21T04:27:09.908Z,46.7
2018-11-21T04:28:11.561Z,46.8
2018-11-21T04:29:13.178Z,46.6
2018-11-21T04:30:15.071Z,46.6
2018-11-21T04:31:16.118Z,46.4
2018-11-21T04:32:17.439Z,46.5
2018-11-21T04:33:19.060Z,46.7
2018-11-21T04:34:20.656Z,46.5
2018-11-21T04:35:22.276Z,46.5
2018-11-21T04:36:23.623Z,46.3
2018-11-21T04:37:25.244Z,46.5
2018-11-21T04:38:27.139Z,46.4
2018-11-21T04:39:28.484Z,46.4
2018-11-21T04:40:30.089Z,46.4
2018-11-21T04:41:31.432Z,46.2
2018-11-21T04:42:33.055Z,46.4
2018-11-21T04:43:34.395Z,46.4
2018-11-21T04:44:36.020Z,46.3
2018-11-21T04:45:37.636Z,46.3
2018-11-21T04:46:39.537Z,46.4
2018-11-21T04:47:41.159Z,46.3
2018-11-21T04:48:43.054Z,46.5
2018-11-21T04:49:44.652Z,46.6
2018-11-21T04:50:46.272Z,46.5
2018-11-21T04:51:47.334Z,46.4
2018-11-21T04:52:48.671Z,46.5
2018-11-21T04:53:50.570Z,46.4
2018-11-21T04:54:52.199Z,46.3
2018-11-21T04:55:53.242Z,46.3
2018-11-21T04:56:54.864Z,46.5
2018-11-21T04:57:56.759Z,46.4
2018-11-21T04:58:58.358Z,46.5
2018-11-21T04:59:59.706Z,46.5
2018-11-21T05:01:01.048Z,46.5
2018-11-21T05:02:02.699Z,46.4
2018-11-21T05:03:04.588Z,46.4
2018-11-21T05:04:05.908Z,46.2
2018-11-21T05:05:06.953Z,46.6
2018-11-21T05:06:08.570Z,46.5
2018-11-21T05:07:10.190Z,46.2
2018-11-21T05:08:12.088Z,46.1
2018-11-21T05:09:13.985Z,46.1
2018-11-21T05:10:15.879Z,46.1
2018-11-21T05:11:17.501Z,46.1
2018-11-21T05:12:19.399Z,46.1
2018-11-21T05:13:21.041Z,46.2
2018-11-21T05:14:22.937Z,46.2
2018-11-21T05:15:24.561Z,46.2
2018-11-21T05:16:26.175Z,46.1
2018-11-21T05:17:28.071Z,46.3
2018-11-21T05:18:29.693Z,46.4
2018-11-21T05:19:31.311Z,46.3
2018-11-21T05:20:33.208Z,46
2018-11-21T05:21:35.107Z,46
2018-11-21T05:22:36.725Z,46.2
2018-11-21T05:23:38.053Z,46.4
2018-11-21T05:24:39.941Z,46.2
2018-11-21T05:25:40.984Z,46.1
2018-11-21T05:26:42.583Z,46.1
2018-11-21T05:27:43.904Z,46.1
2018-11-21T05:28:45.522Z,46.1
2018-11-21T05:29:47.125Z,46.1
2018-11-21T05:30:48.450Z,46.1
2018-11-21T05:31:50.067Z,46.1
2018-11-21T05:32:51.445Z,46.1
2018-11-21T05:33:53.343Z,46.3
2018-11-21T05:34:54.961Z,46.4
2018-11-21T05:35:56.283Z,46.2
2018-11-21T05:36:57.900Z,46.1
2018-11-21T05:37:59.244Z,46.4
2018-11-21T05:39:00.565Z,46.3
2018-11-21T05:40:02.192Z,46.2
2018-11-21T05:41:03.802Z,46.5
2018-11-21T05:42:05.125Z,46.1
2018-11-21T05:43:06.469Z,46.5
2018-11-21T05:44:08.364Z,46.4
2018-11-21T05:45:09.702Z,46.1
2018-11-21T05:46:11.320Z,46.1
2018-11-21T05:47:13.218Z,46.1
2018-11-21T05:48:15.125Z,46.1
2018-11-21T05:49:16.744Z,46.6
2018-11-21T05:50:18.065Z,46.3
2018-11-21T05:51:19.961Z,46.3
2018-11-21T05:52:21.563Z,46.2
2018-11-21T05:53:23.453Z,46.4
2018-11-21T05:54:25.350Z,46.2
2018-11-21T05:55:26.695Z,46.6
2018-11-21T05:56:28.043Z,46.4
2018-11-21T05:57:29.941Z,46.3
2018-11-21T05:58:31.560Z,46.2
2018-11-21T05:59:33.158Z,46.5
2018-11-21T06:00:34.780Z,46.3
2018-11-21T06:01:36.379Z,46.3
2018-11-21T06:02:37.732Z,46.5
2018-11-21T06:03:39.628Z,46.3
2018-11-21T06:04:41.225Z,46.3
2018-11-21T06:05:42.862Z,46.6
2018-11-21T06:06:44.276Z,46.2
2018-11-21T06:07:45.971Z,46.2
2018-11-21T06:08:47.865Z,46.6
2018-11-21T06:09:49.761Z,46.2
2018-11-21T06:10:51.108Z,46.3
2018-11-21T06:11:52.707Z,46.5
2018-11-21T06:12:54.304Z,46.4
2018-11-21T06:13:55.650Z,46.2
2018-11-21T06:14:57.546Z,46.3
2018-11-21T06:15:59.163Z,46.3
2018-11-21T06:17:01.056Z,46.6
2018-11-21T06:18:02.395Z,46.5
2018-11-21T06:19:03.741Z,46.2
2018-11-21T06:20:05.338Z,46.6
2018-11-21T06:21:07.236Z,46.6
2018-11-21T06:22:08.852Z,46.4
2018-11-21T06:23:10.175Z,46.4
2018-11-21T06:24:11.496Z,46.3
2018-11-21T06:25:13.120Z,46.3
2018-11-21T06:26:14.781Z,46.3
2018-11-21T06:27:16.358Z,46.2
2018-11-21T06:28:18.285Z,46.3
2018-11-21T06:29:19.882Z,46.2
2018-11-21T06:30:21.205Z,46.4
2018-11-21T06:31:22.826Z,46.6
2018-11-21T06:32:24.449Z,46.4
2018-11-21T06:33:25.815Z,46.3
2018-11-21T06:34:33.328Z,46.4
2018-11-21T06:35:34.673Z,46.1
2018-11-21T06:36:36.294Z,46.4
2018-11-21T06:37:37.620Z,46.5
2018-11-21T06:38:39.241Z,46.1
2018-11-21T06:39:41.140Z,46.1
2018-11-21T06:40:42.469Z,46.1
2018-11-21T06:41:44.396Z,46.1
2018-11-21T06:42:46.294Z,46.1
2018-11-21T06:43:47.916Z,46
2018-11-21T06:44:49.532Z,46.1
2018-11-21T06:45:51.432Z,46.4
2018-11-21T06:46:53.051Z,46.5
2018-11-21T06:47:54.395Z,46.3
2018-11-21T06:48:56.014Z,46.3
2018-11-21T06:49:57.375Z,46.3
2018-11-21T06:50:58.738Z,46.2
2018-11-21T06:52:00.640Z,46.2
2018-11-21T06:53:02.539Z,46.6
2018-11-21T06:54:04.044Z,46.3
2018-11-21T06:55:05.697Z,46.7
2018-11-21T06:56:07.361Z,46.5
2018-11-21T06:57:09.424Z,46.5
2018-11-21T06:58:11.324Z,46.4
2018-11-21T06:59:13.223Z,46.4
2018-11-21T07:00:15.117Z,46.4
2018-11-21T07:01:16.465Z,46.7
2018-11-21T07:02:18.178Z,46.4
2018-11-21T07:03:19.527Z,46.6
2018-11-21T07:04:21.157Z,46.6
2018-11-21T07:05:22.791Z,46.6
2018-11-21T07:06:24.524Z,46.6
2018-11-21T07:07:26.125Z,46.4
2018-11-21T07:08:28.034Z,46.3
2018-11-21T07:09:29.660Z,46.7
2018-11-21T07:10:31.042Z,46.4
2018-11-21T07:11:32.672Z,46.4
2018-11-21T07:12:34.292Z,46.5
2018-11-21T07:13:35.913Z,46.5
2018-11-21T07:14:37.540Z,46.4
2018-11-21T07:15:39.434Z,46.7
2018-11-21T07:16:40.754Z,46.7
2018-11-21T07:17:42.653Z,46.5
2018-11-21T07:18:44.326Z,46.5
2018-11-21T07:19:45.675Z,46.4
2018-11-21T07:20:47.298Z,46.7
2018-11-21T07:21:49.195Z,46.7
2018-11-21T07:22:50.815Z,46.7
2018-11-21T07:23:52.438Z,46.4
2018-11-21T07:24:54.339Z,46.4
2018-11-21T07:25:55.958Z,46.6
2018-11-21T07:26:57.306Z,46.4
2018-11-21T07:27:58.914Z,46.6
2018-11-21T07:29:00.516Z,46.4
2018-11-21T07:30:02.157Z,46.5
2018-11-21T07:31:03.755Z,46.5
2018-11-21T07:32:05.380Z,46.3
2018-11-21T07:33:06.172Z,46.4
2018-11-21T07:34:07.793Z,46.5
2018-11-21T07:35:09.417Z,46.7
2018-11-21T07:36:10.862Z,46.4
2018-11-21T07:37:12.496Z,46.5
2018-11-21T07:38:14.401Z,46.6
2018-11-21T07:39:16.028Z,46.5
2018-11-21T07:40:17.379Z,46.4
2018-11-21T07:41:18.704Z,46.3
2018-11-21T07:42:20.305Z,46.5
2018-11-21T07:43:21.946Z,46.7
2018-11-21T07:44:23.293Z,46.4
2018-11-21T07:45:25.124Z,46.2
2018-11-21T07:46:26.744Z,46.4
2018-11-21T07:47:28.070Z,46.4
2018-11-21T07:48:29.972Z,46.3
2018-11-21T07:49:31.632Z,46.3
2018-11-21T07:50:33.300Z,46.4
2018-11-21T07:51:34.622Z,46.5
2018-11-21T07:52:36.241Z,46.1
2018-11-21T07:53:37.588Z,46.1
2018-11-21T07:54:39.491Z,46.1
2018-11-21T07:55:41.100Z,46.3
2018-11-21T07:56:42.997Z,46.5
2018-11-21T07:57:44.346Z,46.3
2018-11-21T07:58:46.258Z,46.6
2018-11-21T07:59:47.036Z,46.4
2018-11-21T08:00:48.638Z,46.5
2018-11-21T08:01:50.572Z,46.4
2018-11-21T08:02:51.629Z,46.1
2018-11-21T08:03:53.518Z,46.5
2018-11-21T08:04:54.894Z,46.4
2018-11-21T08:05:56.551Z,46.3
2018-11-21T08:06:58.177Z,46.1
2018-11-21T08:07:59.799Z,46.1
2018-11-21T08:09:01.704Z,46.3
2018-11-21T08:10:03.325Z,46.1
2018-11-21T08:11:04.672Z,46.1
2018-11-21T08:12:06.571Z,46.3
2018-11-21T08:13:08.470Z,46.1
2018-11-21T08:14:09.820Z,46.4
2018-11-21T08:15:11.449Z,46.2
2018-11-21T08:16:20.201Z,46.2
2018-11-21T08:17:21.804Z,46.4
2018-11-21T08:18:23.148Z,46.2
2018-11-21T08:19:24.757Z,46
2018-11-21T08:20:26.089Z,46.1
2018-11-21T08:21:27.704Z,46
2018-11-21T08:22:29.329Z,46.1
2018-11-21T08:23:30.673Z,46.1
2018-11-21T08:24:32.300Z,46.1
2018-11-21T08:25:34.229Z,46
2018-11-21T08:26:35.851Z,46.1
2018-11-21T08:27:37.747Z,45.8
2018-11-21T08:28:39.396Z,46.1
2018-11-21T08:29:40.739Z,46
2018-11-21T08:30:42.088Z,45.9
2018-11-21T08:31:43.763Z,46
2018-11-21T08:32:45.108Z,45.9
2018-11-21T08:33:46.731Z,46.1
2018-11-21T08:34:48.351Z,46.1
2018-11-21T08:35:49.971Z,46.1
2018-11-21T08:36:51.598Z,46.1
2018-11-21T08:37:53.503Z,46
2018-11-21T08:38:55.403Z,46
2018-11-21T08:39:56.744Z,46.1
2018-11-21T08:40:58.646Z,46.1
2018-11-21T08:41:59.989Z,46.1
2018-11-21T08:43:01.320Z,46.1
2018-11-21T08:44:02.387Z,46.1
2018-11-21T08:45:03.454Z,45.9
2018-11-21T08:46:05.085Z,45.9
2018-11-21T08:47:06.146Z,46.1
2018-11-21T08:48:07.790Z,46.1
2018-11-21T08:49:09.725Z,46.1
2018-11-21T08:50:11.113Z,45.9
2018-11-21T08:51:12.493Z,46
2018-11-21T08:52:14.103Z,46.1
2018-11-21T08:53:15.855Z,46.1
2018-11-21T08:54:17.687Z,46.3
2018-11-21T08:55:19.239Z,46.1
2018-11-21T08:56:21.067Z,46.3
2018-11-21T08:57:22.774Z,46.4
2018-11-21T08:58:24.121Z,46.5
2018-11-21T08:59:25.444Z,46.4
2018-11-21T09:00:26.798Z,46.4
2018-11-21T09:01:27.910Z,46.6
2018-11-21T09:02:29.811Z,46.4
2018-11-21T09:03:31.480Z,46.6
2018-11-21T09:04:33.180Z,46.7
2018-11-21T09:05:34.807Z,46.4
2018-11-21T09:06:36.428Z,46.4
2018-11-21T09:07:38.326Z,46.5
2018-11-21T09:08:40.238Z,46.5
2018-11-21T09:09:41.881Z,46.4
2018-11-21T09:10:43.506Z,46.4
2018-11-21T09:11:44.852Z,46.4
2018-11-21T09:12:46.504Z,46.5
2018-11-21T09:13:48.926Z,46.2
2018-11-21T09:14:54.260Z,46.4
2018-11-21T09:15:55.093Z,46.5
2018-11-21T09:16:56.421Z,46.5
2018-11-21T09:17:58.337Z,46.3
2018-11-21T09:18:59.991Z,46.3
2018-11-21T09:20:02.031Z,46.2
2018-11-21T09:21:03.658Z,46.5
2018-11-21T09:22:05.600Z,46.1
2018-11-21T09:23:07.088Z,46.1
2018-11-21T09:24:08.715Z,46.1
2018-11-21T09:25:10.313Z,46.2
2018-11-21T09:26:11.917Z,46.6
2018-11-21T09:27:13.541Z,46
2018-11-21T09:28:15.445Z,46.3
2018-11-21T09:29:17.343Z,46.2
2018-11-21T09:30:18.967Z,46.1
2018-11-21T09:31:20.599Z,46.1
2018-11-21T09:32:22.501Z,46.3
2018-11-21T09:33:24.127Z,46.1
2018-11-21T09:34:25.728Z,46.4
2018-11-21T09:35:26.785Z,46.4
2018-11-21T09:36:28.691Z,46.3
2018-11-21T09:37:30.466Z,46.3
2018-11-21T09:38:33.263Z,46.6
2018-11-21T09:39:34.661Z,46.6
2018-11-21T09:40:35.979Z,46.2
2018-11-21T09:41:37.605Z,46.1
2018-11-21T09:42:38.933Z,46.1
2018-11-21T09:43:40.372Z,46.1
2018-11-21T09:44:42.192Z,46.3
2018-11-21T09:45:43.799Z,46.2
2018-11-21T09:46:45.703Z,46
2018-11-21T09:47:47.030Z,46.3
2018-11-21T09:48:48.654Z,46.2
2018-11-21T09:49:50.550Z,46.4
2018-11-21T09:50:52.459Z,46.2
2018-11-21T09:51:54.063Z,46.3
2018-11-21T09:52:55.393Z,46.3
2018-11-21T09:53:57.011Z,46.4
2018-11-21T09:54:58.911Z,46.2
2018-11-21T09:56:00.255Z,46.1
2018-11-21T09:57:01.885Z,46.1
2018-11-21T09:58:03.785Z,46.3
2018-11-21T09:59:04.856Z,46.2
2018-11-21T10:00:06.478Z,46.2
2018-11-21T10:01:07.821Z,46.1
2018-11-21T10:02:09.142Z,46.1
2018-11-21T10:03:10.769Z,46.4
2018-11-21T10:04:12.367Z,46.3
2018-11-21T10:05:13.967Z,46.2
2018-11-21T10:06:15.022Z,46.1
2018-11-21T10:07:16.963Z,46
2018-11-21T10:08:18.866Z,46.3
2018-11-21T10:09:20.487Z,46.2
2018-11-21T10:10:22.119Z,46
2018-11-21T10:11:23.740Z,46
2018-11-21T10:12:25.093Z,46.1
2018-11-21T10:13:26.709Z,45.9
2018-11-21T10:14:28.055Z,46
2018-11-21T10:15:29.377Z,46.3
2018-11-21T10:16:30.982Z,46.1
2018-11-21T10:17:32.880Z,46.1
2018-11-21T10:18:34.508Z,46.2
2018-11-21T10:19:36.128Z,46.3
2018-11-21T10:20:37.472Z,46.3
2018-11-21T10:21:39.368Z,46.1
2018-11-21T10:22:40.690Z,46.2
2018-11-21T10:23:42.315Z,46.2
2018-11-21T10:24:43.939Z,46.2
2018-11-21T10:25:45.842Z,46.3
2018-11-21T10:26:47.173Z,46.4
2018-11-21T10:27:49.073Z,46.3
2018-11-21T10:28:50.673Z,46.5
2018-11-21T10:29:52.596Z,46.6
2018-11-21T10:30:53.918Z,46.3
2018-11-21T10:31:55.260Z,46.4
2018-11-21T10:32:57.161Z,46.4
2018-11-21T10:33:58.984Z,46.6
2018-11-21T10:35:00.608Z,46.4
2018-11-21T10:36:02.235Z,46.4
2018-11-21T10:37:04.135Z,46.5
2018-11-21T10:38:05.759Z,46.3
2018-11-21T10:39:07.659Z,46.3
2018-11-21T10:40:09.600Z,46.2
2018-11-21T10:41:11.233Z,46.1
2018-11-21T10:42:12.571Z,46.3
2018-11-21T10:43:13.888Z,46.2
2018-11-21T10:44:15.642Z,46.4
2018-11-21T10:45:17.690Z,46.3
2018-11-21T10:46:19.592Z,46.3
2018-11-21T10:47:21.520Z,46.5
2018-11-21T10:48:22.852Z,46.3
2018-11-21T10:49:24.753Z,46.1
2018-11-21T10:50:26.378Z,46
2018-11-21T10:51:27.710Z,46.1
2018-11-21T10:52:32.149Z,46.1
2018-11-21T10:53:33.756Z,46
2018-11-21T10:54:35.655Z,45.9
2018-11-21T10:55:37.255Z,46
2018-11-21T10:56:38.604Z,45.9
2018-11-21T10:57:40.223Z,46
2018-11-21T10:58:41.847Z,46
2018-11-21T10:59:42.896Z,46
2018-11-21T11:00:44.519Z,45.8
2018-11-21T11:01:46.432Z,46.1
2018-11-21T11:02:48.330Z,45.6
2018-11-21T11:03:49.651Z,45.8
2018-11-21T11:04:51.555Z,45.9
2018-11-21T11:05:53.474Z,45.7
2018-11-21T11:06:55.102Z,45.9
2018-11-21T11:07:56.443Z,45.9
2018-11-21T11:08:58.344Z,45.9
2018-11-21T11:10:00.700Z,45.9
2018-11-21T11:11:02.308Z,45.9
2018-11-21T11:12:03.355Z,45.8
2018-11-21T11:13:04.681Z,45.8
2018-11-21T11:14:06.580Z,45.9
2018-11-21T11:15:08.184Z,45.6
2018-11-21T11:16:09.809Z,45.8
2018-11-21T11:17:11.710Z,45.8
2018-11-21T11:18:13.336Z,45.8
2018-11-21T11:19:14.385Z,45.7
2018-11-21T11:20:16.311Z,45.8
2018-11-21T11:21:18.324Z,45.7
2018-11-21T11:22:19.580Z,45.9
2018-11-21T11:23:20.921Z,45.7
2018-11-21T11:24:22.525Z,45.5
2018-11-21T11:25:24.425Z,45.8
2018-11-21T11:26:26.324Z,45.5
2018-11-21T11:27:27.991Z,45.7
2018-11-21T11:28:29.892Z,45.4
2018-11-21T11:29:31.519Z,45.6
2018-11-21T11:30:33.166Z,45.5
2018-11-21T11:31:35.089Z,45.6
2018-11-21T11:32:36.416Z,45.6
2018-11-21T11:33:38.084Z,45.7
2018-11-21T11:34:40.066Z,45.6
2018-11-21T11:35:41.703Z,45.8
2018-11-21T11:36:43.640Z,45.4
2018-11-21T11:37:44.984Z,45.7
2018-11-21T11:38:47.074Z,45.8
2018-11-21T11:39:48.757Z,45.6
2018-11-21T11:40:50.744Z,45.9
2018-11-21T11:41:53.132Z,45.6
2018-11-21T11:42:55.122Z,45.6
2018-11-21T11:43:58.384Z,45.6
2018-11-21T11:45:00.184Z,45.9
2018-11-21T11:46:02.724Z,45.9
2018-11-21T11:47:04.361Z,45.7
2018-11-21T11:48:06.240Z,45.8
2018-11-21T11:49:08.152Z,45.7
2018-11-21T11:50:09.801Z,46
2018-11-21T11:51:11.164Z,45.8
2018-11-21T11:52:12.487Z,45.8
2018-11-21T11:53:14.386Z,45.9
2018-11-21T11:54:16.014Z,45.8
2018-11-21T11:55:17.720Z,45.8
2018-11-21T11:56:19.349Z,45.7
2018-11-21T11:57:20.427Z,45.9
2018-11-21T11:58:22.098Z,45.7
2018-11-21T11:59:24.028Z,45.6
2018-11-21T12:00:25.956Z,45.6
2018-11-21T12:01:27.435Z,45.7
2018-11-21T12:02:29.166Z,45.9
2018-11-21T12:03:30.780Z,45.7
2018-11-21T12:04:32.094Z,45.8
2018-11-21T12:05:33.716Z,45.8
2018-11-21T12:06:35.621Z,46
2018-11-21T12:07:37.241Z,46
2018-11-21T12:08:38.567Z,45.6
2018-11-21T12:09:40.189Z,45.6
2018-11-21T12:10:42.091Z,45.6
2018-11-21T12:11:43.990Z,45.6
2018-11-21T12:12:45.611Z,45.7
2018-11-21T12:13:47.230Z,45.5
2018-11-21T12:14:48.302Z,45.5
2018-11-21T12:15:50.195Z,45.6
2018-11-21T12:16:52.095Z,45.6
2018-11-21T12:17:53.415Z,45.6
2018-11-21T12:18:55.308Z,45.8
2018-11-21T12:19:56.627Z,45.6
2018-11-21T12:20:58.558Z,45.8
2018-11-21T12:21:59.603Z,45.6
2018-11-21T12:23:00.946Z,45.9
2018-11-21T12:24:02.288Z,45.5
2018-11-21T12:25:03.629Z,45.9
2018-11-21T12:26:10.315Z,46.2
2018-11-21T12:27:11.894Z,45.7
2018-11-21T12:28:13.536Z,45.7
2018-11-21T12:29:15.159Z,45.7
2018-11-21T12:30:16.763Z,45.9
2018-11-21T12:31:18.356Z,45.8
2018-11-21T12:32:20.026Z,45.8
2018-11-21T12:33:21.656Z,45.9
2018-11-21T12:34:23.266Z,45.6
2018-11-21T12:35:24.888Z,46
2018-11-21T12:36:26.508Z,46
2018-11-21T12:37:28.131Z,45.8
2018-11-21T12:38:30.022Z,45.8
2018-11-21T12:39:31.643Z,45.6
2018-11-21T12:40:32.976Z,45.9
2018-11-21T12:41:34.869Z,45.9
2018-11-21T12:42:35.938Z,45.9
2018-11-21T12:43:37.554Z,46
2018-11-21T12:44:39.173Z,46
2018-11-21T12:45:40.793Z,45.8
2018-11-21T12:46:42.142Z,45.7
2018-11-21T12:47:44.041Z,45.6
2018-11-21T12:48:45.665Z,45.4
2018-11-21T12:49:46.989Z,45.8
2018-11-21T12:50:48.646Z,45.6
2018-11-21T12:51:49.976Z,45.6
2018-11-21T12:52:51.324Z,45.6
2018-11-21T12:53:52.647Z,45.6
2018-11-21T12:54:53.989Z,45.9
2018-11-21T12:55:55.618Z,45.8
2018-11-21T12:56:57.236Z,45.8
2018-11-21T12:57:59.131Z,45.8
2018-11-21T12:59:00.751Z,45.9
2018-11-21T13:00:01.796Z,46.1
2018-11-21T13:01:03.699Z,45.7
2018-11-21T13:02:05.023Z,46.1
2018-11-21T13:03:06.921Z,45.9
2018-11-21T13:04:08.820Z,45.7
2018-11-21T13:05:10.715Z,45.9
2018-11-21T13:06:11.780Z,45.7
2018-11-21T13:07:13.379Z,45.9
2018-11-21T13:08:15.274Z,45.8
2018-11-21T13:09:16.603Z,46
2018-11-21T13:10:17.923Z,45.6
2018-11-21T13:11:19.251Z,45.9
2018-11-21T13:12:20.873Z,45.7
2018-11-21T13:13:22.196Z,45.7
2018-11-21T13:14:23.516Z,45.7
2018-11-21T13:15:25.116Z,45.7
2018-11-21T13:16:26.738Z,45.8
2018-11-21T13:17:28.166Z,45.6
2018-11-21T13:18:29.514Z,45.8
2018-11-21T13:19:30.869Z,45.6
2018-11-21T13:20:32.192Z,45.8
2018-11-21T13:21:33.822Z,45.8
2018-11-21T13:22:34.862Z,45.5
2018-11-21T13:23:36.482Z,45.9
2018-11-21T13:24:37.526Z,45.8
2018-11-21T13:25:39.423Z,45.8
2018-11-21T13:26:40.769Z,45.7
2018-11-21T13:27:42.391Z,45.7
2018-11-21T13:28:44.011Z,45.7
2018-11-21T13:29:45.629Z,45.6
2018-11-21T13:30:47.245Z,45.7
2018-11-21T13:31:48.926Z,45.6
2018-11-21T13:32:50.693Z,45.5
2018-11-21T13:33:52.314Z,45.6
2018-11-21T13:34:54.212Z,45.2
2018-11-21T13:35:55.584Z,45.5
2018-11-21T13:36:56.964Z,45.4
2018-11-21T13:37:58.298Z,45.4
2018-11-21T13:38:59.624Z,45.2
2018-11-21T13:40:01.520Z,45.8
2018-11-21T13:41:02.844Z,45.7
2018-11-21T13:42:04.741Z,45.2
2018-11-21T13:43:06.093Z,45.1